Data Viewer
| City | State | Eastern Time | Source | Temp | DewPt | RH | BP | 5 Min Precip | Wind Speed | Wind Dir | 5 Min Wind Max | 5 Min Wind Max Dir |
|---|---|---|---|---|---|---|---|---|---|---|---|---|
| New York LGA | NY | 2026-05-06 21:25 | ASOS | 63 | 57 | 83 | 29.76 | 8 | SSW | |||
| New York LGA | NY | 2026-05-07 11:35 | ASOS | 59 | 30 | 33 | 29.83 | 8 | WNW | |||
| New York LGA | NY | 2026-05-07 13:51 | ASOS | 61 | 28 | 28 | 29.79 | 10 | NW | |||
| New York LGA | NY | 2026-05-07 13:30 | ASOS | 61 | 28 | 29 | 29.79 | 12 | N | |||
| New York LGA | NY | 2026-05-07 13:25 | ASOS | 61 | 30 | 31 | 29.79 | 7 | NNW | |||
| New York LGA | NY | 2026-05-07 13:20 | ASOS | 61 | 28 | 29 | 29.80 | 8 | NW | |||
| New York LGA | NY | 2026-05-07 13:15 | ASOS | 61 | 28 | 29 | 29.80 | 9 | N | |||
| New York LGA | NY | 2026-05-07 13:10 | ASOS | 61 | 28 | 29 | 29.80 | 12 | NNW | |||
| New York LGA | NY | 2026-05-07 13:05 | ASOS | 61 | 28 | 29 | 29.80 | 14 | NW | |||
| New York LGA | NY | 2026-05-07 12:51 | ASOS | 61 | 30 | 31 | 29.81 | 10 | N | |||
| New York LGA | NY | 2026-05-07 12:25 | ASOS | 59 | 30 | 33 | 29.82 | 5 | NW | |||
| New York LGA | NY | 2026-05-07 12:20 | ASOS | 61 | 30 | 31 | 29.82 | 12 | NNW | |||
| New York LGA | NY | 2026-05-07 12:15 | ASOS | 61 | 30 | 31 | 29.82 | 14 | N | |||
| New York LGA | NY | 2026-05-07 12:10 | ASOS | 59 | 30 | 33 | 29.83 | 10 | NW | |||
| New York LGA | NY | 2026-05-07 12:05 | ASOS | 59 | 32 | 36 | 29.83 | 10 | N | |||
| New York LGA | NY | 2026-05-07 11:51 | ASOS | 59 | 32 | 36 | 29.83 | 12 | NW | |||
| New York LGA | NY | 2026-05-07 11:25 | ASOS | 57 | 30 | 36 | 29.84 | 12 | NW | |||
| New York LGA | NY | 2026-05-07 14:20 | ASOS | 63 | 30 | 29 | 29.78 | 16 | NW | |||
| New York LGA | NY | 2026-05-07 09:30 | ASOS | 54 | 43 | 67 | 29.85 | 8 | NNW | |||
| New York LGA | NY | 2026-05-07 08:30 | ASOS | 52 | 45 | 76 | 29.86 | 12 | NW | |||
| New York LGA | NY | 2026-05-07 08:35 | ASOS | 52 | 43 | 71 | 29.86 | 12 | NW | |||
| New York LGA | NY | 2026-05-07 08:51 | ASOS | 52 | 44 | 74 | 29.85 | 9 | NNW | |||
| New York LGA | NY | 2026-05-07 09:15 | ASOS | 54 | 43 | 67 | 29.85 | 8 | N | |||
| New York LGA | NY | 2026-05-07 09:20 | ASOS | 54 | 43 | 67 | 29.85 | 8 | NW | |||
| New York LGA | NY | 2026-05-07 09:25 | ASOS | 54 | 43 | 67 | 29.85 | 9 | NNW | |||
| New York LGA | NY | 2026-05-07 09:35 | ASOS | 54 | 41 | 62 | 29.85 | 9 | NNW | |||
| New York LGA | NY | 2026-05-07 11:20 | ASOS | 57 | 30 | 36 | 29.84 | 10 | NW | |||
| New York LGA | NY | 2026-05-07 09:51 | ASOS | 55 | 41 | 59 | 29.85 | 9 | NNW | |||
| New York LGA | NY | 2026-05-07 10:20 | ASOS | 57 | 37 | 47 | 29.85 | 16 | NW | |||
| New York LGA | NY | 2026-05-07 10:25 | ASOS | 55 | 37 | 51 | 29.85 | 14 | NW | |||
| New York LGA | NY | 2026-05-07 10:35 | ASOS | 57 | 37 | 47 | 29.85 | 8 | NNW | |||
| New York LGA | NY | 2026-05-07 10:51 | ASOS | 57 | 33 | 40 | 29.85 | 14 | NW | |||
| New York LGA | NY | 2026-05-07 11:15 | ASOS | 59 | 30 | 33 | 29.84 | 15 | NNW | |||
| New York LGA | NY | 2026-05-07 14:15 | ASOS | 63 | 28 | 27 | 29.78 | 8 | NNW | |||
| New York LGA | NY | 2026-05-07 14:25 | ASOS | 63 | 28 | 27 | 29.77 | 7 | WNW | |||
| New York LGA | NY | 2026-05-07 08:20 | ASOS | 52 | 43 | 71 | 29.86 | 13 | NW | |||
| New York LGA | NY | 2026-05-07 18:10 | ASOS | 63 | 28 | 27 | 29.75 | 15 | NNW | |||
| New York LGA | NY | 2026-05-07 20:30 | ASOS | 61 | 30 | 31 | 29.78 | 8 | NNW | |||
| New York LGA | NY | 2026-05-07 20:20 | ASOS | 61 | 30 | 31 | 29.77 | 9 | N | |||
| New York LGA | NY | 2026-05-07 19:51 | ASOS | 60 | 30 | 32 | 29.76 | 9 | N | |||
| New York LGA | NY | 2026-05-07 19:35 | ASOS | 63 | 28 | 27 | 29.76 | 10 | NNW | |||
| New York LGA | NY | 2026-05-07 19:30 | ASOS | 63 | 28 | 27 | 29.76 | 10 | N | |||
| New York LGA | NY | 2026-05-07 19:25 | ASOS | 63 | 30 | 29 | 29.75 | 9 | NNW | |||
| New York LGA | NY | 2026-05-07 19:20 | ASOS | 63 | 28 | 27 | 29.76 | 12 | NNW | |||
| New York LGA | NY | 2026-05-07 19:15 | ASOS | 63 | 30 | 29 | 29.76 | 9 | NNW | |||
| New York LGA | NY | 2026-05-07 18:51 | ASOS | 62 | 29 | 28 | 29.75 | 10 | N | |||
| New York LGA | NY | 2026-05-07 18:35 | ASOS | 63 | 30 | 29 | 29.75 | 14 | NNW | |||
| New York LGA | NY | 2026-05-07 18:30 | ASOS | 63 | 30 | 29 | 29.75 | 13 | NNW | |||
| New York LGA | NY | 2026-05-07 18:25 | ASOS | 63 | 32 | 32 | 29.75 | 16 | NW | |||
| New York LGA | NY | 2026-05-07 18:20 | ASOS | 63 | 30 | 29 | 29.75 | 10 | NNW | |||
| New York LGA | NY | 2026-05-07 18:15 | ASOS | 63 | 30 | 29 | 29.75 | 14 | NNW | |||
| New York LGA | NY | 2026-05-07 18:05 | ASOS | 63 | 30 | 29 | 29.75 | 12 | NNW | |||
| New York LGA | NY | 2026-05-07 14:35 | ASOS | 63 | 28 | 27 | 29.77 | 12 | WNW | |||
| New York LGA | NY | 2026-05-07 16:15 | ASOS | 64 | 30 | 28 | 29.75 | 13 | WNW | |||
| New York LGA | NY | 2026-05-07 14:51 | ASOS | 62 | 29 | 28 | 29.77 | 16 | NNW | |||
| New York LGA | NY | 2026-05-07 15:10 | ASOS | 63 | 28 | 27 | 29.76 | 14 | NNW | |||
| New York LGA | NY | 2026-05-07 15:15 | ASOS | 63 | 28 | 27 | 29.76 | 17 | NNW | |||
| New York LGA | NY | 2026-05-07 15:20 | ASOS | 63 | 28 | 27 | 29.76 | 16 | NW | |||
| New York LGA | NY | 2026-05-07 15:25 | ASOS | 63 | 28 | 27 | 29.75 | 8 | NNW | |||
| New York LGA | NY | 2026-05-07 15:51 | ASOS | 63 | 31 | 30 | 29.75 | 10 | N | |||
| New York LGA | NY | 2026-05-07 16:20 | ASOS | 64 | 30 | 28 | 29.75 | 10 | NNW | |||
| New York LGA | NY | 2026-05-07 17:51 | ASOS | 63 | 29 | 28 | 29.75 | 14 | NNW | |||
| New York LGA | NY | 2026-05-07 16:25 | ASOS | 64 | 30 | 28 | 29.74 | 10 | NNW | |||
| New York LGA | NY | 2026-05-07 16:51 | ASOS | 64 | 31 | 29 | 29.74 | 10 | NW | |||
| New York LGA | NY | 2026-05-07 17:15 | ASOS | 64 | 30 | 28 | 29.74 | 14 | WNW | |||
| New York LGA | NY | 2026-05-07 17:20 | ASOS | 64 | 30 | 28 | 29.74 | 13 | NNW | |||
| New York LGA | NY | 2026-05-07 17:25 | ASOS | 64 | 28 | 26 | 29.75 | 14 | NNW | |||
| New York LGA | NY | 2026-05-07 17:35 | ASOS | 64 | 28 | 26 | 29.75 | 16 | NNW | |||
| New York LGA | NY | 2026-05-07 08:25 | ASOS | 52 | 45 | 76 | 29.86 | 12 | NW | |||
| New York LGA | NY | 2026-05-07 08:15 | ASOS | 52 | 45 | 76 | 29.85 | 9 | NNW | |||
| New York LGA | NY | 2026-05-06 21:30 | ASOS | 63 | 57 | 83 | 29.76 | 8 | S | |||
| New York LGA | NY | 2026-05-07 00:15 | ASOS | 57 | 48 | 72 | 29.78 | 12 | WNW | |||
| New York LGA | NY | 2026-05-07 02:15 | ASOS | 54 | 50 | 88 | 29.78 | 9 | NW | |||
| New York LGA | NY | 2026-05-07 02:10 | ASOS | 54 | 48 | 82 | 29.78 | 10 | NW | |||
| New York LGA | NY | 2026-05-07 02:05 | ASOS | 54 | 48 | 82 | 29.77 | 14 | NW | |||
| New York LGA | NY | 2026-05-07 02:00 | ASOS | 54 | 48 | 82 | 29.78 | 14 | NW | |||
| New York LGA | NY | 2026-05-07 01:51 | ASOS | 55 | 48 | 77 | 29.78 | 14 | WNW | |||
| New York LGA | NY | 2026-05-07 01:35 | ASOS | 55 | 48 | 77 | 29.78 | 13 | NW | |||
| New York LGA | NY | 2026-05-07 01:30 | ASOS | 55 | 48 | 77 | 29.76 | 14 | NW | |||
| New York LGA | NY | 2026-05-07 01:25 | ASOS | 55 | 48 | 77 | 29.76 | 13 | NW | |||
| New York LGA | NY | 2026-05-07 01:20 | ASOS | 57 | 48 | 72 | 29.76 | 13 | NW | |||
| New York LGA | NY | 2026-05-07 00:51 | ASOS | 57 | 49 | 74 | 29.77 | 10 | NW | |||
| New York LGA | NY | 2026-05-07 00:35 | ASOS | 57 | 48 | 72 | 29.78 | 12 | WNW | |||
| New York LGA | NY | 2026-05-07 00:30 | ASOS | 57 | 50 | 77 | 29.78 | 10 | WNW | |||
| New York LGA | NY | 2026-05-07 00:25 | ASOS | 57 | 50 | 77 | 29.78 | 12 | WNW | |||
| New York LGA | NY | 2026-05-07 00:20 | ASOS | 57 | 50 | 77 | 29.78 | 12 | WNW | |||
| New York LGA | NY | 2026-05-07 00:10 | ASOS | 57 | 50 | 77 | 29.78 | 13 | WNW | |||
| New York LGA | NY | 2026-05-07 02:25 | ASOS | 54 | 48 | 82 | 29.79 | 16 | WNW | |||
| New York LGA | NY | 2026-05-06 22:35 | ASOS | 61 | 57 | 88 | 29.78 | 12 | NW | |||
| New York LGA | NY | 2026-05-06 21:35 | ASOS | 63 | 59 | 88 | 29.76 | 7 | S | |||
| New York LGA | NY | 2026-05-06 21:51 | ASOS | 62 | 60 | 93 | 29.77 | 9 | SW | |||
| New York LGA | NY | 2026-05-06 22:20 | ASOS | 64 | 59 | 83 | 29.78 | 14 | NW | |||
| New York LGA | NY | 2026-05-06 22:25 | ASOS | 63 | 57 | 83 | 29.78 | 14 | NW | |||
| New York LGA | NY | 2026-05-06 22:29 | ASOS | 62 | 57 | 84 | 29.78 | 15 | NW | |||
| New York LGA | NY | 2026-05-06 22:30 | ASOS | 63 | 57 | 83 | 29.77 | 14 | NW | |||
| New York LGA | NY | 2026-05-06 22:40 | ASOS | 61 | 55 | 82 | 29.77 | 14 | NNW | |||
| New York LGA | NY | 2026-05-06 23:35 | ASOS | 57 | 52 | 82 | 29.78 | 12 | WNW | |||
| New York LGA | NY | 2026-05-06 22:44 | ASOS | 60 | 55 | 83 | 29.78 | 14 | NNW | |||
| New York LGA | NY | 2026-05-06 22:51 | ASOS | 60 | 54 | 80 | 29.78 | 10 | NW | |||
| New York LGA | NY | 2026-05-06 23:15 | ASOS | 59 | 52 | 77 | 29.77 | 12 | NW | |||
| New York LGA | NY | 2026-05-06 23:20 | ASOS | 59 | 52 | 77 | 29.77 | 14 | NNW | |||
| New York LGA | NY | 2026-05-06 23:25 | ASOS | 59 | 52 | 77 | 29.78 | 13 | NW | |||
| New York LGA | NY | 2026-05-06 23:30 | ASOS | 59 | 52 | 77 | 29.78 | 12 | NW | |||
| New York LGA | NY | 2026-05-07 02:20 | ASOS | 54 | 48 | 82 | 29.79 | 12 | WNW | |||
| New York LGA | NY | 2026-05-07 02:30 | ASOS | 54 | 48 | 82 | 29.80 | 14 | WNW | |||
| New York LGA | NY | 2026-05-07 07:51 | ASOS | 52 | 44 | 74 | 29.85 | 9 | NNW | |||
| New York LGA | NY | 2026-05-07 06:35 | ASOS | 52 | 45 | 76 | 29.83 | 10 | NW | |||
| New York LGA | NY | 2026-05-07 05:35 | ASOS | 52 | 46 | 82 | 29.80 | 9 | NNW | |||
| New York LGA | NY | 2026-05-07 05:51 | ASOS | 51 | 46 | 83 | 29.80 | 9 | NNW | |||
| New York LGA | NY | 2026-05-07 06:15 | ASOS | 52 | 45 | 76 | 29.82 | 9 | N | |||
| New York LGA | NY | 2026-05-07 06:20 | ASOS | 52 | 45 | 76 | 29.82 | 9 | NNW | |||
| New York LGA | NY | 2026-05-07 06:25 | ASOS | 52 | 45 | 76 | 29.82 | 10 | NNW | |||
| New York LGA | NY | 2026-05-07 06:30 | ASOS | 52 | 45 | 76 | 29.82 | 7 | NNW | |||
| New York LGA | NY | 2026-05-07 06:40 | ASOS | 52 | 45 | 76 | 29.82 | 13 | NNW | |||
| New York LGA | NY | 2026-05-07 05:25 | ASOS | 52 | 46 | 82 | 29.80 | 12 | NNW | |||
| New York LGA | NY | 2026-05-07 06:51 | ASOS | 51 | 45 | 79 | 29.82 | 8 | NNW | |||
| New York LGA | NY | 2026-05-07 07:15 | ASOS | 52 | 45 | 76 | 29.83 | 10 | NW | |||
| New York LGA | NY | 2026-05-07 07:20 | ASOS | 52 | 45 | 76 | 29.83 | 8 | NW | |||
| New York LGA | NY | 2026-05-07 07:25 | ASOS | 52 | 45 | 76 | 29.84 | 9 | NW | |||
| New York LGA | NY | 2026-05-07 07:30 | ASOS | 52 | 45 | 76 | 29.84 | 10 | NNW | |||
| New York LGA | NY | 2026-05-07 07:35 | ASOS | 52 | 45 | 76 | 29.84 | 8 | NNW | |||
| New York LGA | NY | 2026-05-07 05:30 | ASOS | 52 | 46 | 82 | 29.80 | 10 | NW | |||
| New York LGA | NY | 2026-05-07 05:20 | ASOS | 52 | 46 | 82 | 29.80 | 12 | NW | |||
| New York LGA | NY | 2026-05-07 02:35 | ASOS | 54 | 48 | 82 | 29.80 | 13 | WNW | |||
| New York LGA | NY | 2026-05-07 03:51 | ASOS | 52 | 47 | 83 | 29.81 | 12 | WNW | |||
| New York LGA | NY | 2026-05-07 02:51 | ASOS | 53 | 48 | 83 | 29.79 | 16 | NW | |||
| New York LGA | NY | 2026-05-07 03:15 | ASOS | 52 | 46 | 82 | 29.79 | 17 | NW | |||
| New York LGA | NY | 2026-05-07 03:20 | ASOS | 52 | 48 | 87 | 29.80 | 17 | NW | |||
| New York LGA | NY | 2026-05-07 03:25 | ASOS | 52 | 48 | 87 | 29.80 | 16 | NW | |||
| New York LGA | NY | 2026-05-07 03:30 | ASOS | 52 | 46 | 82 | 29.80 | 15 | NW | |||
| New York LGA | NY | 2026-05-07 03:35 | ASOS | 52 | 48 | 87 | 29.80 | 14 | NW | |||
| New York LGA | NY | 2026-05-07 04:00 | ASOS | 52 | 46 | 82 | 29.80 | 16 | NW | |||
| New York LGA | NY | 2026-05-07 04:51 | ASOS | 51 | 46 | 83 | 29.80 | 9 | NW | |||
| New York LGA | NY | 2026-05-07 04:05 | ASOS | 52 | 46 | 82 | 29.80 | 13 | NW | |||
| New York LGA | NY | 2026-05-07 04:10 | ASOS | 52 | 46 | 82 | 29.79 | 13 | NW | |||
| New York LGA | NY | 2026-05-07 04:15 | ASOS | 52 | 46 | 82 | 29.79 | 9 | NNW | |||
| New York LGA | NY | 2026-05-07 04:20 | ASOS | 52 | 46 | 82 | 29.80 | 10 | NW | |||
| New York LGA | NY | 2026-05-07 04:25 | ASOS | 52 | 46 | 82 | 29.79 | 9 | NW | |||
| New York LGA | NY | 2026-05-07 04:30 | ASOS | 52 | 46 | 82 | 29.79 | 13 | NNW | |||
| New York LGA | NY | 2026-05-07 20:51 | ASOS | 59 | 31 | 34 | 29.78 | 7 | N |
data collection created in 0.020998954772949 (queried in 0.004814) rendered in: 0.00019407272338867

